Terminal Aerodrome Forecast
Issued by NWS

Home | Current Version | Previous Version | Graphics & Text | Print | Product List | Glossary On
Versions: 1 2 3 4 5 6 7 8 9 10 11 12 13 14 15 16 17 18
000
FTUS43 KICT 190758 AAA
TAFSLN
TAF AMD
KSLN 190758Z 1908/2006 07009KT P6SM -SHRA VCTS SCT060CB OVC100
     FM191300 13012KT P6SM BKN100
     FM192000 19012KT P6SM VCTS SCT050CB
     FM200000 29012KT P6SM SCT015
     FM200200 31012KT P6SM BKN015=

USA.gov is the U.S. government's official web portal to all federal, state and local government web resources and services.